sensor_id;sensor_type;location;lat;lon;timestamp;pressure;altitude;pressure_sealevel;temperature;humidity
61757;BME280;57225;61.460;24.060;2022-08-11T00:01:25;100598.09;;;15.67;100.00
61757;BME280;57225;61.460;24.060;2022-08-11T00:04:11;100587.28;;;15.66;100.00
61757;BME280;57225;61.460;24.060;2022-08-11T00:07:02;100589.53;;;15.75;100.00
61757;BME280;57225;61.460;24.060;2022-08-11T00:09:46;100593.94;;;15.76;100.00
61757;BME280;57225;61.460;24.060;2022-08-11T00:12:31;100591.13;;;15.76;100.00
61757;BME280;57225;61.460;24.060;2022-08-11T00:15:16;100579.53;;;15.74;100.00
61757;BME280;57225;61.460;24.060;2022-08-11T00:18:01;100576.28;;;15.75;100.00
61757;BME280;57225;61.460;24.060;2022-08-11T00:20:47;100578.25;;;15.78;100.00
61757;BME280;57225;61.460;24.060;2022-08-11T00:23:31;100561.06;;;15.73;100.00
61757;BME280;57225;61.460;24.060;2022-08-11T00:26:16;100573.03;;;15.77;100.00
61757;BME280;57225;61.460;24.060;2022-08-11T00:29:09;100571.91;;;15.74;100.00
61757;BME280;57225;61.460;24.060;2022-08-11T00:31:56;100570.22;;;15.77;100.00
61757;BME280;57225;61.460;24.060;2022-08-11T00:34:43;100571.81;;;15.78;100.00
61757;BME280;57225;61.460;24.060;2022-08-11T00:37:29;100570.19;;;15.80;100.00
61757;BME280;57225;61.460;24.060;2022-08-11T00:41:07;100565.84;;;15.76;100.00
61757;BME280;57225;61.460;24.060;2022-08-11T00:43:41;100557.84;;;15.74;100.00
61757;BME280;57225;61.460;24.060;2022-08-11T00:55:35;100567.41;;;15.77;100.00
61757;BME280;57225;61.460;24.060;2022-08-11T00:58:47;100548.25;;;15.72;100.00
61757;BME280;57225;61.460;24.060;2022-08-11T01:01:54;100564.19;;;15.78;100.00
61757;BME280;57225;61.460;24.060;2022-08-11T01:14:22;100553.66;;;15.82;100.00
61757;BME280;57225;61.460;24.060;2022-08-11T01:27:20;100544.28;;;15.92;100.00
61757;BME280;57225;61.460;24.060;2022-08-11T01:33:13;100541.47;;;15.92;100.00
61757;BME280;57225;61.460;24.060;2022-08-11T01:36:22;100547.00;;;15.96;100.00
61757;BME280;57225;61.460;24.060;2022-08-11T01:39:32;100539.44;;;15.93;100.00
61757;BME280;57225;61.460;24.060;2022-08-11T01:52:25;100525.81;;;15.91;100.00
61757;BME280;57225;61.460;24.060;2022-08-11T01:55:27;100522.91;;;15.95;100.00
61757;BME280;57225;61.460;24.060;2022-08-11T02:01:10;100526.09;;;15.97;100.00
61757;BME280;57225;61.460;24.060;2022-08-11T02:07:30;100525.38;;;15.93;100.00
61757;BME280;57225;61.460;24.060;2022-08-11T02:14:27;100509.78;;;15.88;100.00
61757;BME280;57225;61.460;24.060;2022-08-11T02:20:27;100500.75;;;15.77;100.00
61757;BME280;57225;61.460;24.060;2022-08-11T02:23:47;100505.59;;;15.77;100.00
61757;BME280;57225;61.460;24.060;2022-08-11T02:26:34;100519.22;;;15.78;100.00
61757;BME280;57225;61.460;24.060;2022-08-11T02:29:41;100519.34;;;15.71;100.00
61757;BME280;57225;61.460;24.060;2022-08-11T02:32:54;100516.03;;;15.76;100.00
61757;BME280;57225;61.460;24.060;2022-08-11T02:36:10;100514.91;;;15.74;100.00
61757;BME280;57225;61.460;24.060;2022-08-11T02:52:02;100502.78;;;15.77;100.00
61757;BME280;57225;61.460;24.060;2022-08-11T02:58:01;100504.66;;;15.83;100.00
61757;BME280;57225;61.460;24.060;2022-08-11T03:00:50;100508.69;;;15.82;100.00
61757;BME280;57225;61.460;24.060;2022-08-11T03:03:50;100504.66;;;15.83;100.00
61757;BME280;57225;61.460;24.060;2022-08-11T03:07:13;100509.50;;;15.83;100.00
61757;BME280;57225;61.460;24.060;2022-08-11T03:13:07;100505.09;;;15.82;100.00
61757;BME280;57225;61.460;24.060;2022-08-11T03:16:20;100510.28;;;15.83;100.00
61757;BME280;57225;61.460;24.060;2022-08-11T03:22:33;100505.38;;;15.87;100.00
61757;BME280;57225;61.460;24.060;2022-08-11T03:25:48;100507.78;;;15.89;100.00
61757;BME280;57225;61.460;24.060;2022-08-11T03:31:44;100513.00;;;16.10;100.00
61757;BME280;57225;61.460;24.060;2022-08-11T03:34:31;100506.50;;;16.13;100.00
61757;BME280;57225;61.460;24.060;2022-08-11T03:37:35;100504.78;;;16.19;99.87
61757;BME280;57225;61.460;24.060;2022-08-11T03:40:37;100498.28;;;16.22;99.96
61757;BME280;57225;61.460;24.060;2022-08-11T04:25:23;100453.84;;;17.21;93.60
61757;BME280;57225;61.460;24.060;2022-08-11T04:40:48;100451.81;;;17.99;89.40
61757;BME280;57225;61.460;24.060;2022-08-11T04:49:34;100447.16;;;18.34;87.83
61757;BME280;57225;61.460;24.060;2022-08-11T05:18:23;100456.66;;;26.73;51.66
61757;BME280;57225;61.460;24.060;2022-08-11T05:21:26;100463.97;;;25.27;55.75
61757;BME280;57225;61.460;24.060;2022-08-11T05:25:15;100466.88;;;25.87;54.83
61757;BME280;57225;61.460;24.060;2022-08-11T05:28:02;100469.44;;;25.45;55.47
61757;BME280;57225;61.460;24.060;2022-08-11T05:31:11;100458.56;;;25.49;55.20
61757;BME280;57225;61.460;24.060;2022-08-11T05:34:33;100460.63;;;25.28;56.04
61757;BME280;57225;61.460;24.060;2022-08-11T05:37:42;100465.19;;;23.79;61.12
61757;BME280;57225;61.460;24.060;2022-08-11T05:40:51;100443.22;;;22.90;64.83
61757;BME280;57225;61.460;24.060;2022-08-11T05:44:01;100443.00;;;22.60;65.84
61757;BME280;57225;61.460;24.060;2022-08-11T05:47:05;100441.16;;;22.48;66.26
61757;BME280;57225;61.460;24.060;2022-08-11T05:50:11;100439.59;;;22.29;67.22
61757;BME280;57225;61.460;24.060;2022-08-11T05:53:15;100423.69;;;22.22;68.03
61757;BME280;57225;61.460;24.060;2022-08-11T05:56:20;100411.84;;;22.24;68.33
61757;BME280;57225;61.460;24.060;2022-08-11T05:59:11;100418.66;;;22.08;68.75
61757;BME280;57225;61.460;24.060;2022-08-11T06:02:02;100418.66;;;22.08;69.23
61757;BME280;57225;61.460;24.060;2022-08-11T06:04:54;100416.13;;;22.10;69.22
61757;BME280;57225;61.460;24.060;2022-08-11T06:07:42;100405.25;;;22.18;69.36
61757;BME280;57225;61.460;24.060;2022-08-11T06:10:32;100410.09;;;22.26;69.25
61757;BME280;57225;61.460;24.060;2022-08-11T06:13:19;100413.13;;;22.23;69.28
61757;BME280;57225;61.460;24.060;2022-08-11T06:16:07;100420.38;;;22.15;69.73
61757;BME280;57225;61.460;24.060;2022-08-11T06:18:52;100416.59;;;22.09;69.70
61757;BME280;57225;61.460;24.060;2022-08-11T06:21:37;100433.28;;;22.43;69.50
61757;BME280;57225;61.460;24.060;2022-08-11T06:24:28;100426.16;;;22.48;68.87
61757;BME280;57225;61.460;24.060;2022-08-11T06:27:21;100431.13;;;22.71;69.15
61757;BME280;57225;61.460;24.060;2022-08-11T06:30:06;100422.94;;;22.73;68.28
61757;BME280;57225;61.460;24.060;2022-08-11T06:32:59;100424.31;;;22.87;67.67
61757;BME280;57225;61.460;24.060;2022-08-11T06:35:50;100425.38;;;22.89;67.47
61757;BME280;57225;61.460;24.060;2022-08-11T06:41:51;100415.13;;;22.92;67.64
61757;BME280;57225;61.460;24.060;2022-08-11T06:44:42;100414.53;;;22.78;68.09
61757;BME280;57225;61.460;24.060;2022-08-11T06:47:27;100413.09;;;22.83;68.09
61757;BME280;57225;61.460;24.060;2022-08-11T06:50:21;100416.91;;;23.13;67.80
61757;BME280;57225;61.460;24.060;2022-08-11T06:53:24;100413.03;;;23.25;65.71
61757;BME280;57225;61.460;24.060;2022-08-11T06:56:22;100391.66;;;23.06;66.58
61757;BME280;57225;61.460;24.060;2022-08-11T06:59:26;100392.00;;;23.08;66.80
61757;BME280;57225;61.460;24.060;2022-08-11T07:02:33;100394.78;;;23.64;66.20
61757;BME280;57225;61.460;24.060;2022-08-11T07:05:25;100395.63;;;23.94;65.69
61757;BME280;57225;61.460;24.060;2022-08-11T07:08:46;100402.94;;;24.39;63.34
61757;BME280;57225;61.460;24.060;2022-08-11T07:12:00;100389.91;;;24.68;62.47
61757;BME280;57225;61.460;24.060;2022-08-11T07:15:12;100382.22;;;25.03;61.96
61757;BME280;57225;61.460;24.060;2022-08-11T07:18:24;100389.72;;;25.61;59.78
61757;BME280;57225;61.460;24.060;2022-08-11T07:21:30;100386.06;;;25.81;59.38
61757;BME280;57225;61.460;24.060;2022-08-11T07:27:44;100351.91;;;25.67;57.70
61757;BME280;57225;61.460;24.060;2022-08-11T07:30:48;100382.22;;;25.84;57.81
61757;BME280;57225;61.460;24.060;2022-08-11T07:33:50;100387.16;;;26.10;57.18
61757;BME280;57225;61.460;24.060;2022-08-11T07:36:39;100367.53;;;25.31;57.90
61757;BME280;57225;61.460;24.060;2022-08-11T07:39:31;100367.22;;;25.49;59.04
61757;BME280;57225;61.460;24.060;2022-08-11T07:42:20;100356.66;;;25.55;58.01
61757;BME280;57225;61.460;24.060;2022-08-11T07:45:07;100385.94;;;25.50;57.83
61757;BME280;57225;61.460;24.060;2022-08-11T07:48:11;100384.78;;;25.82;58.22
61757;BME280;57225;61.460;24.060;2022-08-11T07:51:19;100381.56;;;25.95;56.79
61757;BME280;57225;61.460;24.060;2022-08-11T07:54:23;100348.25;;;25.46;57.27
61757;BME280;57225;61.460;24.060;2022-08-11T07:57:09;100348.72;;;25.59;57.01
61757;BME280;57225;61.460;24.060;2022-08-11T08:00:16;100366.66;;;25.85;57.20
61757;BME280;57225;61.460;24.060;2022-08-11T08:03:19;100352.69;;;25.47;57.84
61757;BME280;57225;61.460;24.060;2022-08-11T08:06:23;100385.66;;;25.68;57.72
61757;BME280;57225;61.460;24.060;2022-08-11T08:09:27;100378.09;;;25.45;57.70
61757;BME280;57225;61.460;24.060;2022-08-11T08:12:35;100326.47;;;24.53;57.37
61757;BME280;57225;61.460;24.060;2022-08-11T08:15:40;100361.97;;;24.87;58.07
61757;BME280;57225;61.460;24.060;2022-08-11T08:18:43;100349.75;;;25.01;59.27
61757;BME280;57225;61.460;24.060;2022-08-11T08:21:28;100372.09;;;25.43;58.72
61757;BME280;57225;61.460;24.060;2022-08-11T08:24:13;100384.13;;;25.67;57.11
61757;BME280;57225;61.460;24.060;2022-08-11T08:26:58;100377.78;;;25.83;56.22
61757;BME280;57225;61.460;24.060;2022-08-11T08:29:44;100350.47;;;25.56;55.99
61757;BME280;57225;61.460;24.060;2022-08-11T08:32:51;100393.00;;;25.54;57.67
61757;BME280;57225;61.460;24.060;2022-08-11T08:35:36;100390.63;;;25.93;56.00
61757;BME280;57225;61.460;24.060;2022-08-11T08:38:23;100374.94;;;26.09;56.24
61757;BME280;57225;61.460;24.060;2022-08-11T08:41:09;100380.44;;;26.13;55.91
61757;BME280;57225;61.460;24.060;2022-08-11T08:44:00;100384.38;;;26.41;55.60
61757;BME280;57225;61.460;24.060;2022-08-11T08:46:55;100384.28;;;26.93;54.78
61757;BME280;57225;61.460;24.060;2022-08-11T08:49:48;100393.25;;;27.17;53.27
61757;BME280;57225;61.460;24.060;2022-08-11T08:52:36;100381.38;;;27.35;53.41
61757;BME280;57225;61.460;24.060;2022-08-11T08:55:29;100383.38;;;27.72;53.08
61757;BME280;57225;61.460;24.060;2022-08-11T08:58:14;100387.06;;;27.83;51.30
61757;BME280;57225;61.460;24.060;2022-08-11T09:00:59;100382.09;;;27.84;50.89
61757;BME280;57225;61.460;24.060;2022-08-11T09:03:44;100384.97;;;27.25;52.18
61757;BME280;57225;61.460;24.060;2022-08-11T09:06:32;100380.69;;;26.35;52.58
61757;BME280;57225;61.460;24.060;2022-08-11T09:09:19;100383.63;;;25.94;54.10
61757;BME280;57225;61.460;24.060;2022-08-11T09:12:05;100379.75;;;25.72;54.11
61757;BME280;57225;61.460;24.060;2022-08-11T09:14:50;100379.06;;;25.82;54.62
61757;BME280;57225;61.460;24.060;2022-08-11T09:17:51;100373.94;;;26.38;54.48
61757;BME280;57225;61.460;24.060;2022-08-11T09:20:37;100379.19;;;26.45;54.01
61757;BME280;57225;61.460;24.060;2022-08-11T09:23:23;100381.13;;;26.91;52.87
61757;BME280;57225;61.460;24.060;2022-08-11T09:26:27;100384.94;;;26.82;52.35
61757;BME280;57225;61.460;24.060;2022-08-11T09:29:36;100373.75;;;27.15;52.64
61757;BME280;57225;61.460;24.060;2022-08-11T09:32:22;100381.06;;;27.22;53.27
61757;BME280;57225;61.460;24.060;2022-08-11T09:35:07;100388.22;;;27.49;53.09
61757;BME280;57225;61.460;24.060;2022-08-11T09:37:54;100383.16;;;27.81;50.99
61757;BME280;57225;61.460;24.060;2022-08-11T09:40:58;100379.28;;;26.56;52.96
61757;BME280;57225;61.460;24.060;2022-08-11T09:43:44;100377.56;;;26.38;53.46
61757;BME280;57225;61.460;24.060;2022-08-11T09:46:48;100382.78;;;26.71;53.59
61757;BME280;57225;61.460;24.060;2022-08-11T09:49:36;100379.88;;;26.97;52.40
61757;BME280;57225;61.460;24.060;2022-08-11T09:52:22;100383.44;;;27.29;52.92
61757;BME280;57225;61.460;24.060;2022-08-11T09:55:07;100392.97;;;27.15;52.70
61757;BME280;57225;61.460;24.060;2022-08-11T09:57:55;100387.56;;;26.86;51.69
61757;BME280;57225;61.460;24.060;2022-08-11T10:00:59;100380.88;;;26.94;51.46
61757;BME280;57225;61.460;24.060;2022-08-11T10:03:45;100388.75;;;26.99;51.10
61757;BME280;57225;61.460;24.060;2022-08-11T10:06:33;100391.38;;;26.40;52.34
61757;BME280;57225;61.460;24.060;2022-08-11T10:09:57;100387.22;;;26.72;51.57
61757;BME280;57225;61.460;24.060;2022-08-11T10:13:06;100397.59;;;27.49;50.41
61757;BME280;57225;61.460;24.060;2022-08-11T10:15:54;100397.59;;;28.20;47.92
61757;BME280;57225;61.460;24.060;2022-08-11T10:18:40;100390.03;;;28.67;46.40
61757;BME280;57225;61.460;24.060;2022-08-11T10:21:33;100391.09;;;28.19;48.28
61757;BME280;57225;61.460;24.060;2022-08-11T10:24:20;100395.25;;;28.18;47.78
61757;BME280;57225;61.460;24.060;2022-08-11T10:27:23;100397.50;;;27.92;46.97
61757;BME280;57225;61.460;24.060;2022-08-11T10:30:08;100392.34;;;28.13;47.42
61757;BME280;57225;61.460;24.060;2022-08-11T10:33:12;100396.28;;;28.71;47.69
61757;BME280;57225;61.460;24.060;2022-08-11T10:36:20;100385.59;;;28.71;45.77
61757;BME280;57225;61.460;24.060;2022-08-11T10:39:05;100377.72;;;29.16;45.83
61757;BME280;57225;61.460;24.060;2022-08-11T10:41:50;100397.09;;;28.99;45.94
61757;BME280;57225;61.460;24.060;2022-08-11T10:44:56;100386.13;;;28.53;47.17
61757;BME280;57225;61.460;24.060;2022-08-11T10:47:43;100393.63;;;29.40;45.89
61757;BME280;57225;61.460;24.060;2022-08-11T10:50:28;100386.03;;;29.42;44.52
61757;BME280;57225;61.460;24.060;2022-08-11T10:53:33;100388.19;;;29.14;44.63
61757;BME280;57225;61.460;24.060;2022-08-11T10:56:37;100394.22;;;28.55;46.22
61757;BME280;57225;61.460;24.060;2022-08-11T10:59:41;100386.63;;;28.13;47.15
61757;BME280;57225;61.460;24.060;2022-08-11T11:02:31;100373.81;;;27.97;46.89
61757;BME280;57225;61.460;24.060;2022-08-11T11:05:35;100404.25;;;27.89;47.76
61757;BME280;57225;61.460;24.060;2022-08-11T11:08:38;100387.31;;;27.80;47.49
61757;BME280;57225;61.460;24.060;2022-08-11T11:12:19;100392.63;;;28.20;47.31
61757;BME280;57225;61.460;24.060;2022-08-11T11:15:28;100385.88;;;28.73;46.74
61757;BME280;57225;61.460;24.060;2022-08-11T11:18:35;100389.78;;;28.43;47.03
61757;BME280;57225;61.460;24.060;2022-08-11T11:21:20;100389.66;;;27.76;47.27
61757;BME280;57225;61.460;24.060;2022-08-11T11:27:31;100397.03;;;27.45;48.26
61757;BME280;57225;61.460;24.060;2022-08-11T11:30:21;100391.25;;;27.88;47.61
61757;BME280;57225;61.460;24.060;2022-08-11T11:33:57;100385.84;;;28.12;47.21
61757;BME280;57225;61.460;24.060;2022-08-11T11:36:30;100393.94;;;28.97;46.08
61757;BME280;57225;61.460;24.060;2022-08-11T11:39:21;100384.47;;;29.36;44.49
61757;BME280;57225;61.460;24.060;2022-08-11T11:42:08;100393.91;;;29.19;44.79
61757;BME280;57225;61.460;24.060;2022-08-11T11:44:53;100383.81;;;28.63;44.34
61757;BME280;57225;61.460;24.060;2022-08-11T11:47:38;100380.38;;;28.64;44.28
61757;BME280;57225;61.460;24.060;2022-08-11T11:53:09;100389.53;;;28.40;44.65
61757;BME280;57225;61.460;24.060;2022-08-11T11:55:55;100389.53;;;28.40;46.37
61757;BME280;57225;61.460;24.060;2022-08-11T11:58:42;100381.72;;;28.35;45.14
61757;BME280;57225;61.460;24.060;2022-08-11T12:01:45;100389.53;;;28.85;44.96
61757;BME280;57225;61.460;24.060;2022-08-11T12:04:30;100390.06;;;28.95;45.23
61757;BME280;57225;61.460;24.060;2022-08-11T12:07:14;100400.75;;;28.77;43.71
61757;BME280;57225;61.460;24.060;2022-08-11T12:10:18;100399.44;;;28.39;44.70
61757;BME280;57225;61.460;24.060;2022-08-11T12:13:02;100392.13;;;28.27;45.39
61757;BME280;57225;61.460;24.060;2022-08-11T12:16:10;100397.06;;;28.16;46.37
61757;BME280;57225;61.460;24.060;2022-08-11T12:18:58;100406.22;;;28.36;45.87
61757;BME280;57225;61.460;24.060;2022-08-11T12:21:43;100414.59;;;28.96;44.58
61757;BME280;57225;61.460;24.060;2022-08-11T12:24:47;100394.94;;;29.16;42.50
61757;BME280;57225;61.460;24.060;2022-08-11T12:27:53;100417.72;;;28.81;43.98
61757;BME280;57225;61.460;24.060;2022-08-11T12:30:38;100398.91;;;28.35;43.81
61757;BME280;57225;61.460;24.060;2022-08-11T12:33:24;100406.72;;;28.18;45.70
61757;BME280;57225;61.460;24.060;2022-08-11T12:36:10;100411.81;;;27.81;47.56
61757;BME280;57225;61.460;24.060;2022-08-11T12:38:59;100414.72;;;28.09;47.01
61757;BME280;57225;61.460;24.060;2022-08-11T12:41:45;100417.03;;;27.88;46.63
61757;BME280;57225;61.460;24.060;2022-08-11T12:44:48;100417.41;;;28.34;46.62
61757;BME280;57225;61.460;24.060;2022-08-11T12:48:00;100413.09;;;27.74;48.07
61757;BME280;57225;61.460;24.060;2022-08-11T12:51:15;100419.47;;;27.04;49.08
61757;BME280;57225;61.460;24.060;2022-08-11T12:54:33;100412.81;;;26.87;49.43
61757;BME280;57225;61.460;24.060;2022-08-11T12:57:38;100412.19;;;26.72;49.83
61757;BME280;57225;61.460;24.060;2022-08-11T13:00:44;100412.31;;;26.57;50.79
61757;BME280;57225;61.460;24.060;2022-08-11T13:03:48;100420.63;;;26.55;49.81
61757;BME280;57225;61.460;24.060;2022-08-11T13:06:51;100422.22;;;25.84;52.42
61757;BME280;57225;61.460;24.060;2022-08-11T13:09:36;100416.53;;;25.49;52.76
61757;BME280;57225;61.460;24.060;2022-08-11T13:12:22;100405.78;;;25.39;53.67
61757;BME280;57225;61.460;24.060;2022-08-11T13:15:26;100423.47;;;25.43;52.52
61757;BME280;57225;61.460;24.060;2022-08-11T13:18:23;100421.56;;;25.34;52.57
61757;BME280;57225;61.460;24.060;2022-08-11T13:21:09;100430.25;;;25.45;52.16
61757;BME280;57225;61.460;24.060;2022-08-11T13:23:55;100426.22;;;25.72;52.09
61757;BME280;57225;61.460;24.060;2022-08-11T13:26:41;100419.06;;;25.82;50.36
61757;BME280;57225;61.460;24.060;2022-08-11T13:29:27;100418.22;;;25.76;50.90
61757;BME280;57225;61.460;24.060;2022-08-11T13:32:13;100428.47;;;25.88;51.84
61757;BME280;57225;61.460;24.060;2022-08-11T13:34:59;100430.09;;;26.15;51.26
61757;BME280;57225;61.460;24.060;2022-08-11T13:37:44;100428.97;;;26.33;50.62
61757;BME280;57225;61.460;24.060;2022-08-11T13:40:32;100429.84;;;26.19;50.30
61757;BME280;57225;61.460;24.060;2022-08-11T13:43:18;100436.34;;;26.19;50.66
61757;BME280;57225;61.460;24.060;2022-08-11T13:46:04;100442.69;;;26.03;49.35
61757;BME280;57225;61.460;24.060;2022-08-11T13:49:06;100441.72;;;25.86;50.79
61757;BME280;57225;61.460;24.060;2022-08-11T13:51:54;100447.06;;;25.78;50.13
61757;BME280;57225;61.460;24.060;2022-08-11T13:54:39;100438.09;;;25.50;50.20
61757;BME280;57225;61.460;24.060;2022-08-11T13:57:25;100454.41;;;25.09;51.06
61757;BME280;57225;61.460;24.060;2022-08-11T14:00:13;100450.94;;;25.05;51.81
61757;BME280;57225;61.460;24.060;2022-08-11T14:02:58;100454.19;;;24.98;52.21
61757;BME280;57225;61.460;24.060;2022-08-11T14:05:47;100457.06;;;24.83;51.96
61757;BME280;57225;61.460;24.060;2022-08-11T14:08:35;100450.00;;;24.64;51.67
61757;BME280;57225;61.460;24.060;2022-08-11T14:11:21;100459.72;;;24.58;53.58
61757;BME280;57225;61.460;24.060;2022-08-11T14:14:27;100453.66;;;24.65;53.65
61757;BME280;57225;61.460;24.060;2022-08-11T14:17:16;100446.84;;;24.62;53.00
61757;BME280;57225;61.460;24.060;2022-08-11T14:20:04;100452.66;;;24.68;52.61
61757;BME280;57225;61.460;24.060;2022-08-11T14:22:51;100456.78;;;24.67;54.36
61757;BME280;57225;61.460;24.060;2022-08-11T14:25:35;100455.09;;;24.60;54.04
61757;BME280;57225;61.460;24.060;2022-08-11T14:28:40;100444.22;;;24.59;53.07
61757;BME280;57225;61.460;24.060;2022-08-11T14:31:26;100451.00;;;24.47;53.48
61757;BME280;57225;61.460;24.060;2022-08-11T14:34:11;100445.19;;;24.56;54.74
61757;BME280;57225;61.460;24.060;2022-08-11T14:36:59;100452.66;;;24.68;53.92
61757;BME280;57225;61.460;24.060;2022-08-11T14:39:56;100465.53;;;24.49;54.07
61757;BME280;57225;61.460;24.060;2022-08-11T14:42:41;100463.84;;;24.42;54.91
61757;BME280;57225;61.460;24.060;2022-08-11T14:45:45;100466.41;;;24.55;53.36
61757;BME280;57225;61.460;24.060;2022-08-11T14:48:48;100468.13;;;24.08;54.08
61757;BME280;57225;61.460;24.060;2022-08-11T14:51:33;100465.53;;;23.95;54.85
61757;BME280;57225;61.460;24.060;2022-08-11T14:54:17;100474.06;;;23.95;55.58
61757;BME280;57225;61.460;24.060;2022-08-11T14:57:21;100472.13;;;23.78;56.23
61757;BME280;57225;61.460;24.060;2022-08-11T15:00:09;100475.28;;;23.80;55.67
61757;BME280;57225;61.460;24.060;2022-08-11T15:02:59;100463.69;;;23.69;56.77
61757;BME280;57225;61.460;24.060;2022-08-11T15:05:56;100474.69;;;23.76;56.64
61757;BME280;57225;61.460;24.060;2022-08-11T15:08:40;100472.06;;;23.87;56.45
61757;BME280;57225;61.460;24.060;2022-08-11T15:11:37;100468.50;;;24.01;57.10
61757;BME280;57225;61.460;24.060;2022-08-11T15:14:43;100481.59;;;23.84;56.10
61757;BME280;57225;61.460;24.060;2022-08-11T15:17:47;100478.22;;;23.71;56.98
61757;BME280;57225;61.460;24.060;2022-08-11T15:20:33;100486.63;;;23.65;57.67
61757;BME280;57225;61.460;24.060;2022-08-11T15:23:38;100478.63;;;23.54;57.27
61757;BME280;57225;61.460;24.060;2022-08-11T15:26:41;100471.47;;;23.59;57.72
61757;BME280;57225;61.460;24.060;2022-08-11T15:29:45;100481.25;;;23.67;57.40
61757;BME280;57225;61.460;24.060;2022-08-11T15:32:51;100488.38;;;23.62;57.30
61757;BME280;57225;61.460;24.060;2022-08-11T15:35:56;100479.38;;;23.64;58.15
61757;BME280;57225;61.460;24.060;2022-08-11T15:39:17;100479.94;;;23.44;58.10
61757;BME280;57225;61.460;24.060;2022-08-11T15:42:07;100474.28;;;23.35;58.69
61757;BME280;57225;61.460;24.060;2022-08-11T15:45:12;100475.97;;;23.18;58.13
61757;BME280;57225;61.460;24.060;2022-08-11T15:48:20;100480.69;;;23.21;57.82
61757;BME280;57225;61.460;24.060;2022-08-11T15:54:04;100484.19;;;23.16;58.49
61757;BME280;57225;61.460;24.060;2022-08-11T15:56:52;100494.97;;;23.12;58.54
61757;BME280;57225;61.460;24.060;2022-08-11T15:59:38;100492.00;;;23.06;58.16
61757;BME280;57225;61.460;24.060;2022-08-11T16:02:56;100490.63;;;22.93;58.96
61757;BME280;57225;61.460;24.060;2022-08-11T16:06:02;100497.41;;;22.95;59.75
61757;BME280;57225;61.460;24.060;2022-08-11T16:08:47;100492.69;;;22.83;59.18
61757;BME280;57225;61.460;24.060;2022-08-11T16:11:33;100496.66;;;22.76;59.05
61757;BME280;57225;61.460;24.060;2022-08-11T16:14:18;100499.03;;;22.69;58.92
61757;BME280;57225;61.460;24.060;2022-08-11T16:17:24;100482.97;;;22.48;59.43
61757;BME280;57225;61.460;24.060;2022-08-11T16:20:14;100498.56;;;22.52;59.56
61757;BME280;57225;61.460;24.060;2022-08-11T16:23:04;100491.19;;;22.36;59.72
61757;BME280;57225;61.460;24.060;2022-08-11T16:25:50;100503.22;;;22.31;60.42
61757;BME280;57225;61.460;24.060;2022-08-11T16:28:38;100498.00;;;22.30;61.10
61757;BME280;57225;61.460;24.060;2022-08-11T16:31:27;100489.28;;;22.33;61.32
61757;BME280;57225;61.460;24.060;2022-08-11T16:34:17;100462.19;;;22.05;62.21
61757;BME280;57225;61.460;24.060;2022-08-11T16:37:22;100503.66;;;22.39;61.80
61757;BME280;57225;61.460;24.060;2022-08-11T16:40:25;100472.28;;;22.24;62.38
61757;BME280;57225;61.460;24.060;2022-08-11T16:43:17;100505.53;;;22.51;62.34
61757;BME280;57225;61.460;24.060;2022-08-11T16:46:21;100496.53;;;22.53;62.14
61757;BME280;57225;61.460;24.060;2022-08-11T16:49:40;100494.47;;;22.53;62.23
61757;BME280;57225;61.460;24.060;2022-08-11T16:52:26;100487.38;;;22.49;62.99
61757;BME280;57225;61.460;24.060;2022-08-11T16:55:11;100480.59;;;22.46;63.19
61757;BME280;57225;61.460;24.060;2022-08-11T16:57:56;100488.78;;;22.53;63.43
61757;BME280;57225;61.460;24.060;2022-08-11T17:01:00;100490.38;;;22.45;63.62
61757;BME280;57225;61.460;24.060;2022-08-11T17:03:51;100501.59;;;22.39;63.38
61757;BME280;57225;61.460;24.060;2022-08-11T17:06:56;100472.44;;;22.21;63.67
61757;BME280;57225;61.460;24.060;2022-08-11T17:10:00;100508.72;;;22.35;63.24
61757;BME280;57225;61.460;24.060;2022-08-11T17:13:04;100511.56;;;22.17;63.22
61757;BME280;57225;61.460;24.060;2022-08-11T17:15:56;100505.88;;;21.98;63.64
61757;BME280;57225;61.460;24.060;2022-08-11T17:19:10;100509.94;;;21.79;64.06
61757;BME280;57225;61.460;24.060;2022-08-11T17:21:59;100514.63;;;21.64;61.41
61757;BME280;57225;61.460;24.060;2022-08-11T17:25:04;100524.72;;;21.56;61.97
61757;BME280;57225;61.460;24.060;2022-08-11T17:27:51;100506.03;;;21.27;62.11
61757;BME280;57225;61.460;24.060;2022-08-11T17:30:37;100526.22;;;21.39;62.07
61757;BME280;57225;61.460;24.060;2022-08-11T17:33:51;100534.06;;;21.25;62.61
61757;BME280;57225;61.460;24.060;2022-08-11T17:36:55;100546.72;;;21.12;62.92
61757;BME280;57225;61.460;24.060;2022-08-11T17:39:40;100530.19;;;21.10;61.86
61757;BME280;57225;61.460;24.060;2022-08-11T17:42:27;100531.53;;;20.97;62.25
61757;BME280;57225;61.460;24.060;2022-08-11T17:45:31;100525.69;;;20.91;61.36
61757;BME280;57225;61.460;24.060;2022-08-11T17:48:37;100533.22;;;20.85;61.14
61757;BME280;57225;61.460;24.060;2022-08-11T17:51:27;100539.41;;;20.71;60.96
61757;BME280;57225;61.460;24.060;2022-08-11T17:54:35;100552.59;;;20.65;60.38
61757;BME280;57225;61.460;24.060;2022-08-11T17:57:41;100558.88;;;20.60;61.59
61757;BME280;57225;61.460;24.060;2022-08-11T18:00:45;100558.47;;;20.49;62.42
61757;BME280;57225;61.460;24.060;2022-08-11T18:03:34;100555.91;;;20.41;62.68
61757;BME280;57225;61.460;24.060;2022-08-11T18:06:23;100542.03;;;20.22;63.54